sensor_id;sensor_type;location;lat;lon;timestamp;temperature;humidity
8595;DHT22;4335;48.860;9.198;2023-03-15T00:00:52;3.30;99.90
8595;DHT22;4335;48.860;9.198;2023-03-15T00:03:23;3.30;99.90
8595;DHT22;4335;48.860;9.198;2023-03-15T00:05:53;3.30;99.90
8595;DHT22;4335;48.860;9.198;2023-03-15T00:08:20;3.30;99.90
8595;DHT22;4335;48.860;9.198;2023-03-15T00:10:48;3.40;99.90
8595;DHT22;4335;48.860;9.198;2023-03-15T00:13:18;3.40;99.90
8595;DHT22;4335;48.860;9.198;2023-03-15T00:15:51;3.30;99.90
8595;DHT22;4335;48.860;9.198;2023-03-15T00:18:22;3.40;99.90
8595;DHT22;4335;48.860;9.198;2023-03-15T00:20:49;3.40;99.90
8595;DHT22;4335;48.860;9.198;2023-03-15T00:23:19;3.40;99.90
8595;DHT22;4335;48.860;9.198;2023-03-15T00:25:49;3.40;99.90
8595;DHT22;4335;48.860;9.198;2023-03-15T00:28:17;3.40;99.90
8595;DHT22;4335;48.860;9.198;2023-03-15T00:30:45;3.30;99.90
8595;DHT22;4335;48.860;9.198;2023-03-15T00:33:15;3.30;99.90
8595;DHT22;4335;48.860;9.198;2023-03-15T00:35:44;3.30;99.90
8595;DHT22;4335;48.860;9.198;2023-03-15T00:38:12;3.30;99.90
8595;DHT22;4335;48.860;9.198;2023-03-15T00:40:42;3.30;99.90
8595;DHT22;4335;48.860;9.198;2023-03-15T00:43:09;3.30;99.90
8595;DHT22;4335;48.860;9.198;2023-03-15T00:45:39;3.40;99.90
8595;DHT22;4335;48.860;9.198;2023-03-15T00:48:10;3.40;99.90
8595;DHT22;4335;48.860;9.198;2023-03-15T00:50:41;3.40;99.90
8595;DHT22;4335;48.860;9.198;2023-03-15T00:53:15;3.40;99.90
8595;DHT22;4335;48.860;9.198;2023-03-15T00:55:42;3.40;99.90
8595;DHT22;4335;48.860;9.198;2023-03-15T00:58:13;3.40;99.90
8595;DHT22;4335;48.860;9.198;2023-03-15T01:00:40;3.40;99.90
8595;DHT22;4335;48.860;9.198;2023-03-15T01:03:13;3.40;99.90
8595;DHT22;4335;48.860;9.198;2023-03-15T01:05:42;3.40;99.90
8595;DHT22;4335;48.860;9.198;2023-03-15T01:08:15;3.30;99.90
8595;DHT22;4335;48.860;9.198;2023-03-15T01:10:55;3.30;99.90
8595;DHT22;4335;48.860;9.198;2023-03-15T01:13:24;3.20;99.90
8595;DHT22;4335;48.860;9.198;2023-03-15T01:15:52;3.20;99.90
8595;DHT22;4335;48.860;9.198;2023-03-15T01:18:22;3.20;99.90
8595;DHT22;4335;48.860;9.198;2023-03-15T01:20:51;3.20;99.90
8595;DHT22;4335;48.860;9.198;2023-03-15T01:23:18;3.10;99.90
8595;DHT22;4335;48.860;9.198;2023-03-15T01:25:46;3.10;99.90
8595;DHT22;4335;48.860;9.198;2023-03-15T01:28:31;3.00;99.90
8595;DHT22;4335;48.860;9.198;2023-03-15T01:31:02;3.00;99.90
8595;DHT22;4335;48.860;9.198;2023-03-15T01:33:36;3.00;99.90
8595;DHT22;4335;48.860;9.198;2023-03-15T01:36:06;2.90;99.90
8595;DHT22;4335;48.860;9.198;2023-03-15T01:38:34;2.90;99.90
8595;DHT22;4335;48.860;9.198;2023-03-15T01:41:01;2.90;99.90
8595;DHT22;4335;48.860;9.198;2023-03-15T01:43:32;2.90;99.90
8595;DHT22;4335;48.860;9.198;2023-03-15T01:48:52;2.80;99.90
8595;DHT22;4335;48.860;9.198;2023-03-15T01:51:31;2.90;99.90
8595;DHT22;4335;48.860;9.198;2023-03-15T01:54:06;2.80;99.90
8595;DHT22;4335;48.860;9.198;2023-03-15T01:56:44;2.80;99.90
8595;DHT22;4335;48.860;9.198;2023-03-15T01:59:15;2.80;99.90
8595;DHT22;4335;48.860;9.198;2023-03-15T02:01:44;2.80;99.90
8595;DHT22;4335;48.860;9.198;2023-03-15T02:04:17;2.80;99.90
8595;DHT22;4335;48.860;9.198;2023-03-15T02:06:56;2.80;99.90
8595;DHT22;4335;48.860;9.198;2023-03-15T02:09:36;2.70;99.90
8595;DHT22;4335;48.860;9.198;2023-03-15T02:12:08;2.70;99.90
8595;DHT22;4335;48.860;9.198;2023-03-15T02:14:36;2.70;99.90
8595;DHT22;4335;48.860;9.198;2023-03-15T02:17:04;2.70;99.90
8595;DHT22;4335;48.860;9.198;2023-03-15T02:19:47;2.70;99.90
8595;DHT22;4335;48.860;9.198;2023-03-15T02:22:39;2.60;99.90
8595;DHT22;4335;48.860;9.198;2023-03-15T02:25:34;2.60;99.90
8595;DHT22;4335;48.860;9.198;2023-03-15T02:28:11;2.60;99.90
8595;DHT22;4335;48.860;9.198;2023-03-15T02:30:42;2.60;99.90
8595;DHT22;4335;48.860;9.198;2023-03-15T02:33:17;2.60;99.90
8595;DHT22;4335;48.860;9.198;2023-03-15T02:35:50;2.60;99.90
8595;DHT22;4335;48.860;9.198;2023-03-15T02:38:21;2.50;99.90
8595;DHT22;4335;48.860;9.198;2023-03-15T02:40:51;2.50;99.90
8595;DHT22;4335;48.860;9.198;2023-03-15T02:43:40;2.50;99.90
8595;DHT22;4335;48.860;9.198;2023-03-15T02:46:08;2.40;99.90
8595;DHT22;4335;48.860;9.198;2023-03-15T02:48:46;2.40;99.90
8595;DHT22;4335;48.860;9.198;2023-03-15T02:51:28;2.40;99.90
8595;DHT22;4335;48.860;9.198;2023-03-15T02:53:56;2.40;99.90
8595;DHT22;4335;48.860;9.198;2023-03-15T02:56:23;2.30;99.90
8595;DHT22;4335;48.860;9.198;2023-03-15T02:58:54;2.30;99.90
8595;DHT22;4335;48.860;9.198;2023-03-15T03:01:25;2.30;99.90
8595;DHT22;4335;48.860;9.198;2023-03-15T03:03:52;2.20;99.90
8595;DHT22;4335;48.860;9.198;2023-03-15T03:06:20;2.20;99.90
8595;DHT22;4335;48.860;9.198;2023-03-15T03:08:50;2.20;99.90
8595;DHT22;4335;48.860;9.198;2023-03-15T03:11:17;2.20;99.90
8595;DHT22;4335;48.860;9.198;2023-03-15T03:13:47;2.20;99.90
8595;DHT22;4335;48.860;9.198;2023-03-15T03:16:17;2.20;99.90
8595;DHT22;4335;48.860;9.198;2023-03-15T03:18:44;2.20;99.90
8595;DHT22;4335;48.860;9.198;2023-03-15T03:21:14;2.20;99.90
8595;DHT22;4335;48.860;9.198;2023-03-15T03:23:42;2.20;99.90
8595;DHT22;4335;48.860;9.198;2023-03-15T03:26:14;2.10;99.90
8595;DHT22;4335;48.860;9.198;2023-03-15T03:28:43;2.10;99.90
8595;DHT22;4335;48.860;9.198;2023-03-15T03:31:20;2.10;99.90
8595;DHT22;4335;48.860;9.198;2023-03-15T03:33:51;2.10;99.90
8595;DHT22;4335;48.860;9.198;2023-03-15T03:36:19;2.10;99.90
8595;DHT22;4335;48.860;9.198;2023-03-15T03:38:47;2.10;99.90
8595;DHT22;4335;48.860;9.198;2023-03-15T03:41:14;2.10;99.90
8595;DHT22;4335;48.860;9.198;2023-03-15T03:43:42;2.00;99.90
8595;DHT22;4335;48.860;9.198;2023-03-15T03:46:15;2.00;99.90
8595;DHT22;4335;48.860;9.198;2023-03-15T03:48:51;2.00;99.90
8595;DHT22;4335;48.860;9.198;2023-03-15T03:51:24;1.90;99.90
8595;DHT22;4335;48.860;9.198;2023-03-15T03:54:01;2.00;99.90
8595;DHT22;4335;48.860;9.198;2023-03-15T03:56:29;1.90;99.90
8595;DHT22;4335;48.860;9.198;2023-03-15T03:59:05;1.90;99.90
8595;DHT22;4335;48.860;9.198;2023-03-15T04:01:33;1.90;99.90
8595;DHT22;4335;48.860;9.198;2023-03-15T04:04:02;1.90;99.90
8595;DHT22;4335;48.860;9.198;2023-03-15T04:06:29;1.90;99.90
8595;DHT22;4335;48.860;9.198;2023-03-15T04:08:57;1.90;99.90
8595;DHT22;4335;48.860;9.198;2023-03-15T04:11:24;1.90;99.90
8595;DHT22;4335;48.860;9.198;2023-03-15T04:13:52;1.90;99.90
8595;DHT22;4335;48.860;9.198;2023-03-15T04:16:19;1.90;99.90
8595;DHT22;4335;48.860;9.198;2023-03-15T04:18:46;1.90;99.90
8595;DHT22;4335;48.860;9.198;2023-03-15T04:21:15;1.90;99.90
8595;DHT22;4335;48.860;9.198;2023-03-15T04:23:47;1.80;99.90
8595;DHT22;4335;48.860;9.198;2023-03-15T04:26:15;1.80;99.90
8595;DHT22;4335;48.860;9.198;2023-03-15T04:28:42;1.80;99.90
8595;DHT22;4335;48.860;9.198;2023-03-15T04:31:10;1.80;99.90
8595;DHT22;4335;48.860;9.198;2023-03-15T04:33:45;1.80;99.90
8595;DHT22;4335;48.860;9.198;2023-03-15T04:36:14;1.70;99.90
8595;DHT22;4335;48.860;9.198;2023-03-15T04:38:46;1.80;99.90
8595;DHT22;4335;48.860;9.198;2023-03-15T04:41:14;1.80;99.90
8595;DHT22;4335;48.860;9.198;2023-03-15T04:43:45;1.80;99.90
8595;DHT22;4335;48.860;9.198;2023-03-15T04:46:15;1.80;99.90
8595;DHT22;4335;48.860;9.198;2023-03-15T04:48:45;1.80;99.90
8595;DHT22;4335;48.860;9.198;2023-03-15T04:51:17;1.80;99.90
8595;DHT22;4335;48.860;9.198;2023-03-15T04:53:51;1.80;99.90
8595;DHT22;4335;48.860;9.198;2023-03-15T04:56:18;1.80;99.90
8595;DHT22;4335;48.860;9.198;2023-03-15T04:58:45;1.80;99.90
8595;DHT22;4335;48.860;9.198;2023-03-15T05:01:13;1.80;99.90
8595;DHT22;4335;48.860;9.198;2023-03-15T05:03:43;1.80;99.90
8595;DHT22;4335;48.860;9.198;2023-03-15T05:06:13;1.80;99.90
8595;DHT22;4335;48.860;9.198;2023-03-15T05:08:45;1.80;99.90
8595;DHT22;4335;48.860;9.198;2023-03-15T05:11:12;1.90;99.90
8595;DHT22;4335;48.860;9.198;2023-03-15T05:13:39;1.90;99.90
8595;DHT22;4335;48.860;9.198;2023-03-15T05:16:15;1.80;99.90
8595;DHT22;4335;48.860;9.198;2023-03-15T05:18:43;1.90;99.90
8595;DHT22;4335;48.860;9.198;2023-03-15T05:21:11;1.90;99.90
8595;DHT22;4335;48.860;9.198;2023-03-15T05:23:38;1.90;99.90
8595;DHT22;4335;48.860;9.198;2023-03-15T05:26:10;1.90;99.90
8595;DHT22;4335;48.860;9.198;2023-03-15T05:28:37;1.90;99.90
8595;DHT22;4335;48.860;9.198;2023-03-15T05:31:05;1.90;99.90
8595;DHT22;4335;48.860;9.198;2023-03-15T05:33:34;1.90;99.90
8595;DHT22;4335;48.860;9.198;2023-03-15T05:36:11;1.90;99.90
8595;DHT22;4335;48.860;9.198;2023-03-15T05:38:42;2.00;99.90
8595;DHT22;4335;48.860;9.198;2023-03-15T05:41:14;2.20;99.90
8595;DHT22;4335;48.860;9.198;2023-03-15T05:43:43;2.20;99.90
8595;DHT22;4335;48.860;9.198;2023-03-15T05:46:14;2.30;99.90
8595;DHT22;4335;48.860;9.198;2023-03-15T05:48:42;2.40;99.90
8595;DHT22;4335;48.860;9.198;2023-03-15T05:51:09;2.50;99.90
8595;DHT22;4335;48.860;9.198;2023-03-15T05:53:41;2.70;99.90
8595;DHT22;4335;48.860;9.198;2023-03-15T05:56:16;3.00;99.90
8595;DHT22;4335;48.860;9.198;2023-03-15T05:58:43;3.30;99.90
8595;DHT22;4335;48.860;9.198;2023-03-15T06:01:10;3.70;99.90
8595;DHT22;4335;48.860;9.198;2023-03-15T06:03:41;4.10;99.90
8595;DHT22;4335;48.860;9.198;2023-03-15T06:06:09;4.60;99.90
8595;DHT22;4335;48.860;9.198;2023-03-15T06:08:36;5.10;99.90
8595;DHT22;4335;48.860;9.198;2023-03-15T06:11:06;5.60;99.90
8595;DHT22;4335;48.860;9.198;2023-03-15T06:13:35;6.30;99.90
8595;DHT22;4335;48.860;9.198;2023-03-15T06:16:06;6.90;99.90
8595;DHT22;4335;48.860;9.198;2023-03-15T06:18:36;7.40;99.90
8595;DHT22;4335;48.860;9.198;2023-03-15T06:21:06;7.90;99.90
8595;DHT22;4335;48.860;9.198;2023-03-15T06:23:34;8.20;99.90
8595;DHT22;4335;48.860;9.198;2023-03-15T06:26:01;8.50;99.90
8595;DHT22;4335;48.860;9.198;2023-03-15T06:28:29;8.80;99.90
8595;DHT22;4335;48.860;9.198;2023-03-15T06:31:05;9.20;99.90
8595;DHT22;4335;48.860;9.198;2023-03-15T06:33:33;9.40;99.90
8595;DHT22;4335;48.860;9.198;2023-03-15T06:36:04;9.60;99.90
8595;DHT22;4335;48.860;9.198;2023-03-15T06:38:31;9.90;99.90
8595;DHT22;4335;48.860;9.198;2023-03-15T06:40:59;9.90;99.90
8595;DHT22;4335;48.860;9.198;2023-03-15T06:43:27;10.30;99.90
8595;DHT22;4335;48.860;9.198;2023-03-15T06:45:54;10.50;99.90
8595;DHT22;4335;48.860;9.198;2023-03-15T06:48:29;10.40;99.90
8595;DHT22;4335;48.860;9.198;2023-03-15T06:50:56;10.50;99.90
8595;DHT22;4335;48.860;9.198;2023-03-15T06:53:26;10.00;99.90
8595;DHT22;4335;48.860;9.198;2023-03-15T06:55:54;9.40;99.90
8595;DHT22;4335;48.860;9.198;2023-03-15T06:58:21;8.60;99.90
8595;DHT22;4335;48.860;9.198;2023-03-15T07:00:49;8.10;99.90
8595;DHT22;4335;48.860;9.198;2023-03-15T07:03:17;7.40;99.90
8595;DHT22;4335;48.860;9.198;2023-03-15T07:05:50;6.90;99.90
8595;DHT22;4335;48.860;9.198;2023-03-15T07:08:19;6.60;99.90
8595;DHT22;4335;48.860;9.198;2023-03-15T07:10:47;6.30;99.90
8595;DHT22;4335;48.860;9.198;2023-03-15T07:13:15;6.10;99.90
8595;DHT22;4335;48.860;9.198;2023-03-15T07:15:42;5.90;99.90
8595;DHT22;4335;48.860;9.198;2023-03-15T07:18:12;5.70;99.90
8595;DHT22;4335;48.860;9.198;2023-03-15T07:20:40;5.50;99.90
8595;DHT22;4335;48.860;9.198;2023-03-15T07:23:15;5.50;99.90
8595;DHT22;4335;48.860;9.198;2023-03-15T07:25:42;5.40;99.90
8595;DHT22;4335;48.860;9.198;2023-03-15T07:28:16;5.30;99.90
8595;DHT22;4335;48.860;9.198;2023-03-15T07:30:52;5.20;99.90
8595;DHT22;4335;48.860;9.198;2023-03-15T07:33:29;5.20;99.90
8595;DHT22;4335;48.860;9.198;2023-03-15T07:36:01;5.20;99.90
8595;DHT22;4335;48.860;9.198;2023-03-15T07:38:33;5.20;99.90
8595;DHT22;4335;48.860;9.198;2023-03-15T07:41:01;5.20;99.90
8595;DHT22;4335;48.860;9.198;2023-03-15T07:43:28;5.20;99.90
8595;DHT22;4335;48.860;9.198;2023-03-15T07:45:56;5.10;99.90
8595;DHT22;4335;48.860;9.198;2023-03-15T07:48:23;5.20;99.90
8595;DHT22;4335;48.860;9.198;2023-03-15T07:50:51;5.20;99.90
8595;DHT22;4335;48.860;9.198;2023-03-15T07:53:18;5.20;99.90
8595;DHT22;4335;48.860;9.198;2023-03-15T07:55:50;5.30;99.90
8595;DHT22;4335;48.860;9.198;2023-03-15T07:58:24;5.40;99.90
8595;DHT22;4335;48.860;9.198;2023-03-15T08:00:53;5.30;99.90
8595;DHT22;4335;48.860;9.198;2023-03-15T08:03:27;5.30;99.90
8595;DHT22;4335;48.860;9.198;2023-03-15T08:05:55;5.30;99.90
8595;DHT22;4335;48.860;9.198;2023-03-15T08:08:34;5.30;99.90
8595;DHT22;4335;48.860;9.198;2023-03-15T08:11:09;5.30;99.90
8595;DHT22;4335;48.860;9.198;2023-03-15T08:13:37;5.40;99.90
8595;DHT22;4335;48.860;9.198;2023-03-15T08:16:04;5.40;99.90
8595;DHT22;4335;48.860;9.198;2023-03-15T08:18:44;5.40;99.90
8595;DHT22;4335;48.860;9.198;2023-03-15T08:21:14;5.40;99.90
8595;DHT22;4335;48.860;9.198;2023-03-15T08:23:42;5.50;99.90
8595;DHT22;4335;48.860;9.198;2023-03-15T08:26:14;5.60;99.90
8595;DHT22;4335;48.860;9.198;2023-03-15T08:28:50;5.60;99.90
8595;DHT22;4335;48.860;9.198;2023-03-15T08:31:17;5.60;99.90
8595;DHT22;4335;48.860;9.198;2023-03-15T08:33:50;5.70;99.90
8595;DHT22;4335;48.860;9.198;2023-03-15T08:36:17;5.80;99.90
8595;DHT22;4335;48.860;9.198;2023-03-15T08:38:44;5.70;99.90
8595;DHT22;4335;48.860;9.198;2023-03-15T08:41:16;6.00;99.90
8595;DHT22;4335;48.860;9.198;2023-03-15T08:43:46;6.10;99.90
8595;DHT22;4335;48.860;9.198;2023-03-15T08:46:14;6.00;99.90
8595;DHT22;4335;48.860;9.198;2023-03-15T08:48:44;6.20;99.90
8595;DHT22;4335;48.860;9.198;2023-03-15T08:51:14;6.40;99.90
8595;DHT22;4335;48.860;9.198;2023-03-15T08:53:42;6.80;99.90
8595;DHT22;4335;48.860;9.198;2023-03-15T08:56:09;6.80;99.90
8595;DHT22;4335;48.860;9.198;2023-03-15T08:58:38;6.90;99.90
8595;DHT22;4335;48.860;9.198;2023-03-15T09:01:06;7.10;99.90
8595;DHT22;4335;48.860;9.198;2023-03-15T09:03:33;7.00;99.90
8595;DHT22;4335;48.860;9.198;2023-03-15T09:06:04;7.10;99.90
8595;DHT22;4335;48.860;9.198;2023-03-15T09:08:35;7.30;99.90
8595;DHT22;4335;48.860;9.198;2023-03-15T09:11:05;7.60;99.90
8595;DHT22;4335;48.860;9.198;2023-03-15T09:13:33;7.80;99.90
8595;DHT22;4335;48.860;9.198;2023-03-15T09:16:07;7.90;99.90
8595;DHT22;4335;48.860;9.198;2023-03-15T09:18:38;8.00;99.90
8595;DHT22;4335;48.860;9.198;2023-03-15T09:21:05;7.90;99.90
8595;DHT22;4335;48.860;9.198;2023-03-15T09:23:36;8.30;99.90
8595;DHT22;4335;48.860;9.198;2023-03-15T09:26:06;8.20;99.90
8595;DHT22;4335;48.860;9.198;2023-03-15T09:28:36;8.30;99.90
8595;DHT22;4335;48.860;9.198;2023-03-15T09:31:08;8.00;99.90
8595;DHT22;4335;48.860;9.198;2023-03-15T09:33:38;7.90;99.90
8595;DHT22;4335;48.860;9.198;2023-03-15T09:36:06;7.80;99.90
8595;DHT22;4335;48.860;9.198;2023-03-15T09:38:42;7.50;99.90
8595;DHT22;4335;48.860;9.198;2023-03-15T09:41:16;7.50;99.90
8595;DHT22;4335;48.860;9.198;2023-03-15T09:44:11;7.60;99.90
8595;DHT22;4335;48.860;9.198;2023-03-15T09:46:56;7.70;99.90
8595;DHT22;4335;48.860;9.198;2023-03-15T09:49:36;7.70;99.90
8595;DHT22;4335;48.860;9.198;2023-03-15T09:52:17;7.70;99.90
8595;DHT22;4335;48.860;9.198;2023-03-15T09:54:51;7.60;99.90
8595;DHT22;4335;48.860;9.198;2023-03-15T09:57:30;7.70;99.90
8595;DHT22;4335;48.860;9.198;2023-03-15T10:00:04;7.50;99.90
8595;DHT22;4335;48.860;9.198;2023-03-15T10:02:43;7.70;99.90
8595;DHT22;4335;48.860;9.198;2023-03-15T10:05:19;7.70;99.90
8595;DHT22;4335;48.860;9.198;2023-03-15T10:07:56;7.80;99.90
8595;DHT22;4335;48.860;9.198;2023-03-15T10:10:27;8.00;99.90
8595;DHT22;4335;48.860;9.198;2023-03-15T10:13:24;8.60;99.90
8595;DHT22;4335;48.860;9.198;2023-03-15T10:16:02;10.10;99.90
8595;DHT22;4335;48.860;9.198;2023-03-15T10:18:42;11.50;99.10
8595;DHT22;4335;48.860;9.198;2023-03-15T10:21:22;12.40;96.50
8595;DHT22;4335;48.860;9.198;2023-03-15T10:24:01;12.40;95.50
8595;DHT22;4335;48.860;9.198;2023-03-15T10:26:33;11.50;94.70
8595;DHT22;4335;48.860;9.198;2023-03-15T10:29:07;11.20;95.90
8595;DHT22;4335;48.860;9.198;2023-03-15T10:31:38;10.50;95.90
8595;DHT22;4335;48.860;9.198;2023-03-15T10:34:09;10.10;97.30
8595;DHT22;4335;48.860;9.198;2023-03-15T10:36:37;10.50;98.50
8595;DHT22;4335;48.860;9.198;2023-03-15T10:39:10;10.90;98.20
8595;DHT22;4335;48.860;9.198;2023-03-15T10:41:40;11.40;97.40
8595;DHT22;4335;48.860;9.198;2023-03-15T10:44:12;11.80;95.40
8595;DHT22;4335;48.860;9.198;2023-03-15T10:46:40;12.50;94.10
8595;DHT22;4335;48.860;9.198;2023-03-15T10:49:13;13.40;92.80
8595;DHT22;4335;48.860;9.198;2023-03-15T10:51:43;13.90;91.40
8595;DHT22;4335;48.860;9.198;2023-03-15T10:54:13;13.80;90.20
8595;DHT22;4335;48.860;9.198;2023-03-15T10:56:45;13.50;90.90
8595;DHT22;4335;48.860;9.198;2023-03-15T10:59:17;12.80;90.80
8595;DHT22;4335;48.860;9.198;2023-03-15T11:01:51;12.20;92.60
8595;DHT22;4335;48.860;9.198;2023-03-15T11:04:21;12.10;93.80
8595;DHT22;4335;48.860;9.198;2023-03-15T11:07:00;11.40;93.80
8595;DHT22;4335;48.860;9.198;2023-03-15T11:09:38;10.70;93.70
8595;DHT22;4335;48.860;9.198;2023-03-15T11:12:20;10.60;95.40
8595;DHT22;4335;48.860;9.198;2023-03-15T11:14:50;10.40;97.50
8595;DHT22;4335;48.860;9.198;2023-03-15T11:17:20;9.90;98.00
8595;DHT22;4335;48.860;9.198;2023-03-15T11:19:56;9.90;98.70
8595;DHT22;4335;48.860;9.198;2023-03-15T11:22:24;9.70;98.40
8595;DHT22;4335;48.860;9.198;2023-03-15T11:24:52;9.50;96.20
8595;DHT22;4335;48.860;9.198;2023-03-15T11:27:22;9.20;94.80
8595;DHT22;4335;48.860;9.198;2023-03-15T11:29:53;9.30;94.90
8595;DHT22;4335;48.860;9.198;2023-03-15T11:32:23;9.30;94.70
8595;DHT22;4335;48.860;9.198;2023-03-15T11:34:57;9.20;95.20
8595;DHT22;4335;48.860;9.198;2023-03-15T11:37:32;9.20;95.70
8595;DHT22;4335;48.860;9.198;2023-03-15T11:40:05;9.10;95.20
8595;DHT22;4335;48.860;9.198;2023-03-15T11:42:50;8.80;95.70
8595;DHT22;4335;48.860;9.198;2023-03-15T11:45:34;8.50;95.40
8595;DHT22;4335;48.860;9.198;2023-03-15T11:48:10;8.30;95.80
8595;DHT22;4335;48.860;9.198;2023-03-15T11:50:43;8.30;96.70
8595;DHT22;4335;48.860;9.198;2023-03-15T11:53:13;8.20;98.10
8595;DHT22;4335;48.860;9.198;2023-03-15T11:55:47;8.20;99.90
8595;DHT22;4335;48.860;9.198;2023-03-15T11:58:29;8.00;99.90
8595;DHT22;4335;48.860;9.198;2023-03-15T12:01:04;7.90;99.90
8595;DHT22;4335;48.860;9.198;2023-03-15T12:03:42;8.00;99.90
8595;DHT22;4335;48.860;9.198;2023-03-15T12:12:05;8.00;99.90
8595;DHT22;4335;48.860;9.198;2023-03-15T12:15:05;7.90;99.90
8595;DHT22;4335;48.860;9.198;2023-03-15T12:17:43;7.90;99.90
8595;DHT22;4335;48.860;9.198;2023-03-15T12:20:17;7.90;99.90
8595;DHT22;4335;48.860;9.198;2023-03-15T12:22:50;8.00;99.90
8595;DHT22;4335;48.860;9.198;2023-03-15T12:25:28;8.00;99.90
8595;DHT22;4335;48.860;9.198;2023-03-15T12:28:06;8.10;99.90
8595;DHT22;4335;48.860;9.198;2023-03-15T12:30:40;8.10;99.90
8595;DHT22;4335;48.860;9.198;2023-03-15T12:33:14;7.90;99.90
8595;DHT22;4335;48.860;9.198;2023-03-15T12:35:42;7.90;99.90
8595;DHT22;4335;48.860;9.198;2023-03-15T12:38:15;7.70;99.90
8595;DHT22;4335;48.860;9.198;2023-03-15T12:40:53;7.60;99.90
8595;DHT22;4335;48.860;9.198;2023-03-15T12:43:38;7.20;99.90
8595;DHT22;4335;48.860;9.198;2023-03-15T12:49:29;6.60;99.90
8595;DHT22;4335;48.860;9.198;2023-03-15T12:52:01;6.30;99.90
8595;DHT22;4335;48.860;9.198;2023-03-15T12:54:41;6.20;99.90
8595;DHT22;4335;48.860;9.198;2023-03-15T12:57:16;6.20;99.90
8595;DHT22;4335;48.860;9.198;2023-03-15T12:59:50;6.20;99.90
8595;DHT22;4335;48.860;9.198;2023-03-15T13:02:29;6.20;99.90
8595;DHT22;4335;48.860;9.198;2023-03-15T13:05:08;6.20;99.90
8595;DHT22;4335;48.860;9.198;2023-03-15T13:08:02;6.30;99.90
8595;DHT22;4335;48.860;9.198;2023-03-15T13:10:51;6.20;99.90
8595;DHT22;4335;48.860;9.198;2023-03-15T13:13:30;6.20;99.90
8595;DHT22;4335;48.860;9.198;2023-03-15T13:16:15;6.10;99.90
8595;DHT22;4335;48.860;9.198;2023-03-15T13:18:58;6.10;99.90
8595;DHT22;4335;48.860;9.198;2023-03-15T13:21:33;6.20;99.90
8595;DHT22;4335;48.860;9.198;2023-03-15T13:24:02;6.10;99.90
8595;DHT22;4335;48.860;9.198;2023-03-15T13:26:40;6.20;99.90
8595;DHT22;4335;48.860;9.198;2023-03-15T13:29:14;6.40;99.90
8595;DHT22;4335;48.860;9.198;2023-03-15T13:31:59;6.50;99.90
8595;DHT22;4335;48.860;9.198;2023-03-15T13:34:28;6.60;99.90
8595;DHT22;4335;48.860;9.198;2023-03-15T13:37:10;6.70;99.90
8595;DHT22;4335;48.860;9.198;2023-03-15T13:39:52;6.60;99.90
8595;DHT22;4335;48.860;9.198;2023-03-15T13:42:24;6.60;99.90
8595;DHT22;4335;48.860;9.198;2023-03-15T13:45:05;6.60;99.90
8595;DHT22;4335;48.860;9.198;2023-03-15T13:47:40;6.60;99.90
8595;DHT22;4335;48.860;9.198;2023-03-15T13:50:14;6.60;99.90
8595;DHT22;4335;48.860;9.198;2023-03-15T13:52:42;6.70;99.90
8595;DHT22;4335;48.860;9.198;2023-03-15T13:55:15;6.80;99.90
8595;DHT22;4335;48.860;9.198;2023-03-15T13:57:44;6.80;99.90
8595;DHT22;4335;48.860;9.198;2023-03-15T14:00:18;6.70;99.90
8595;DHT22;4335;48.860;9.198;2023-03-15T14:02:52;6.80;99.90
8595;DHT22;4335;48.860;9.198;2023-03-15T14:05:23;6.80;99.90
8595;DHT22;4335;48.860;9.198;2023-03-15T14:08:04;6.90;99.90
8595;DHT22;4335;48.860;9.198;2023-03-15T14:10:37;7.10;99.90
8595;DHT22;4335;48.860;9.198;2023-03-15T14:13:22;7.20;99.90
8595;DHT22;4335;48.860;9.198;2023-03-15T14:15:55;7.40;99.90
8595;DHT22;4335;48.860;9.198;2023-03-15T14:18:24;7.40;99.90
8595;DHT22;4335;48.860;9.198;2023-03-15T14:20:58;7.30;99.90
8595;DHT22;4335;48.860;9.198;2023-03-15T14:23:37;7.40;99.90
8595;DHT22;4335;48.860;9.198;2023-03-15T14:26:16;7.50;99.90
8595;DHT22;4335;48.860;9.198;2023-03-15T14:28:53;7.50;99.90
8595;DHT22;4335;48.860;9.198;2023-03-15T14:31:26;7.50;99.90
8595;DHT22;4335;48.860;9.198;2023-03-15T14:33:56;7.50;99.90
8595;DHT22;4335;48.860;9.198;2023-03-15T14:36:40;7.50;99.90
8595;DHT22;4335;48.860;9.198;2023-03-15T14:39:17;7.50;99.90
8595;DHT22;4335;48.860;9.198;2023-03-15T14:41:52;7.50;99.90
8595;DHT22;4335;48.860;9.198;2023-03-15T14:44:27;7.50;99.90
8595;DHT22;4335;48.860;9.198;2023-03-15T14:46:55;7.30;99.90
8595;DHT22;4335;48.860;9.198;2023-03-15T14:49:28;6.70;99.90
8595;DHT22;4335;48.860;9.198;2023-03-15T14:51:58;6.20;99.90
8595;DHT22;4335;48.860;9.198;2023-03-15T14:54:28;6.00;99.90
8595;DHT22;4335;48.860;9.198;2023-03-15T14:57:02;6.00;99.90
8595;DHT22;4335;48.860;9.198;2023-03-15T14:59:40;6.00;99.90
8595;DHT22;4335;48.860;9.198;2023-03-15T15:02:13;6.00;99.90
8595;DHT22;4335;48.860;9.198;2023-03-15T15:04:44;6.10;99.90
8595;DHT22;4335;48.860;9.198;2023-03-15T15:07:14;6.20;99.90
8595;DHT22;4335;48.860;9.198;2023-03-15T15:09:46;6.30;99.90
8595;DHT22;4335;48.860;9.198;2023-03-15T15:12:14;6.30;99.90
8595;DHT22;4335;48.860;9.198;2023-03-15T15:14:48;6.20;99.90
8595;DHT22;4335;48.860;9.198;2023-03-15T15:17:16;6.10;99.90
8595;DHT22;4335;48.860;9.198;2023-03-15T15:19:43;6.10;99.90
8595;DHT22;4335;48.860;9.198;2023-03-15T15:22:11;6.00;99.90
8595;DHT22;4335;48.860;9.198;2023-03-15T15:24:38;5.90;99.90
8595;DHT22;4335;48.860;9.198;2023-03-15T15:27:08;5.60;99.90
8595;DHT22;4335;48.860;9.198;2023-03-15T15:29:41;5.60;99.90
8595;DHT22;4335;48.860;9.198;2023-03-15T15:32:11;5.40;99.90
8595;DHT22;4335;48.860;9.198;2023-03-15T15:34:38;5.10;99.90
8595;DHT22;4335;48.860;9.198;2023-03-15T15:37:10;5.10;99.90
8595;DHT22;4335;48.860;9.198;2023-03-15T15:39:43;5.00;99.90
8595;DHT22;4335;48.860;9.198;2023-03-15T15:42:11;4.90;99.90
8595;DHT22;4335;48.860;9.198;2023-03-15T15:44:41;4.80;99.90
8595;DHT22;4335;48.860;9.198;2023-03-15T15:47:13;4.70;99.90
8595;DHT22;4335;48.860;9.198;2023-03-15T15:49:40;4.70;99.90
8595;DHT22;4335;48.860;9.198;2023-03-15T15:52:09;4.60;99.90
8595;DHT22;4335;48.860;9.198;2023-03-15T15:54:37;4.60;99.90
8595;DHT22;4335;48.860;9.198;2023-03-15T15:57:05;4.70;99.90
8595;DHT22;4335;48.860;9.198;2023-03-15T15:59:36;4.80;99.90
8595;DHT22;4335;48.860;9.198;2023-03-15T16:02:13;4.80;99.90
8595;DHT22;4335;48.860;9.198;2023-03-15T16:04:47;4.80;99.90
8595;DHT22;4335;48.860;9.198;2023-03-15T16:07:17;4.80;99.90
8595;DHT22;4335;48.860;9.198;2023-03-15T16:09:45;4.90;99.90
8595;DHT22;4335;48.860;9.198;2023-03-15T16:12:15;5.00;99.90
8595;DHT22;4335;48.860;9.198;2023-03-15T16:14:46;5.10;99.90
8595;DHT22;4335;48.860;9.198;2023-03-15T16:17:29;5.00;99.90
8595;DHT22;4335;48.860;9.198;2023-03-15T16:20:07;5.00;99.90
8595;DHT22;4335;48.860;9.198;2023-03-15T16:22:35;4.90;99.90
8595;DHT22;4335;48.860;9.198;2023-03-15T16:25:07;4.90;99.90
8595;DHT22;4335;48.860;9.198;2023-03-15T16:27:35;5.00;99.90
8595;DHT22;4335;48.860;9.198;2023-03-15T16:30:04;5.00;99.90
8595;DHT22;4335;48.860;9.198;2023-03-15T16:32:33;5.00;99.90
8595;DHT22;4335;48.860;9.198;2023-03-15T16:35:01;4.90;99.90
8595;DHT22;4335;48.860;9.198;2023-03-15T16:37:31;5.00;99.90
8595;DHT22;4335;48.860;9.198;2023-03-15T16:40:01;4.90;99.90
8595;DHT22;4335;48.860;9.198;2023-03-15T16:42:37;4.90;99.90
8595;DHT22;4335;48.860;9.198;2023-03-15T16:45:11;4.90;99.90
8595;DHT22;4335;48.860;9.198;2023-03-15T16:47:40;4.80;99.90
8595;DHT22;4335;48.860;9.198;2023-03-15T16:50:09;4.80;99.90
8595;DHT22;4335;48.860;9.198;2023-03-15T16:52:40;4.80;99.90
8595;DHT22;4335;48.860;9.198;2023-03-15T16:55:18;4.80;99.90
8595;DHT22;4335;48.860;9.198;2023-03-15T16:57:50;4.90;99.90
8595;DHT22;4335;48.860;9.198;2023-03-15T17:00:19;4.90;99.90